createdAt,value
2017-05-19T00:01:15.252Z,25.04
2017-05-19T00:02:15.375Z,25.07
2017-05-19T00:03:15.311Z,25.08
2017-05-19T00:04:14.948Z,25.1
2017-05-19T00:05:14.890Z,25.03
2017-05-19T00:06:14.835Z,25.01
2017-05-19T00:07:14.771Z,25.07
2017-05-19T00:08:15.007Z,25.1
2017-05-19T00:09:14.961Z,25.08
2017-05-19T00:10:14.889Z,25.13
2017-05-19T00:11:14.923Z,25.06
2017-05-19T00:12:14.767Z,25.06
2017-05-19T00:13:14.706Z,24.98
2017-05-19T00:14:14.642Z,24.95
2017-05-19T00:15:14.588Z,25.06
2017-05-19T00:16:14.519Z,25.07
2017-05-19T00:17:14.467Z,25.08
2017-05-19T00:18:14.396Z,25.07
2017-05-19T00:19:14.342Z,25.08
2017-05-19T00:20:14.275Z,25.06
2017-05-19T00:21:13.928Z,25.1
2017-05-19T00:22:14.163Z,25.06
2017-05-19T00:23:14.107Z,24.98
2017-05-19T00:24:14.029Z,25.01
2017-05-19T00:25:13.969Z,25.07
2017-05-19T00:26:13.916Z,25.07
2017-05-19T00:27:13.858Z,25.1
2017-05-19T00:28:13.481Z,25.1
2017-05-19T00:29:13.728Z,25.1
2017-05-19T00:30:13.667Z,25.03
2017-05-19T00:31:13.604Z,24.96
2017-05-19T00:32:13.540Z,25.07
2017-05-19T00:33:13.425Z,24.98
2017-05-19T00:34:13.419Z,25.11
2017-05-19T00:35:13.364Z,24.95
2017-05-19T00:36:13.296Z,25.08
2017-05-19T00:37:12.930Z,25.08
2017-05-19T00:38:12.565Z,24.98
2017-05-19T00:39:12.506Z,25.01
2017-05-19T00:40:12.446Z,25.08
2017-05-19T00:41:12.384Z,25.1
2017-05-19T00:42:12.627Z,25.04
2017-05-19T00:43:12.563Z,25.04
2017-05-19T00:44:12.813Z,25.01
2017-05-19T00:45:12.447Z,25.1
2017-05-19T00:46:12.681Z,25.04
2017-05-19T00:47:12.622Z,25.04
2017-05-19T00:48:12.561Z,24.96
2017-05-19T00:49:12.196Z,24.99
2017-05-19T00:50:12.137Z,25.04
2017-05-19T00:51:12.079Z,25.01
2017-05-19T00:52:12.325Z,25.07
2017-05-19T00:53:12.259Z,25.03
2017-05-19T00:54:11.890Z,25.1
2017-05-19T00:55:11.833Z,25.08
2017-05-19T00:56:12.071Z,25.01
2017-05-19T00:57:12.009Z,25.07
2017-05-19T00:58:11.652Z,25.08
2017-05-19T00:59:11.889Z,25.04
2017-05-19T01:00:11.854Z,25.04
2017-05-19T01:01:11.766Z,25.07
2017-05-19T01:02:11.402Z,25.07
2017-05-19T01:03:11.646Z,24.93
2017-05-19T01:04:11.282Z,24.99
2017-05-19T01:05:11.523Z,25.01
2017-05-19T01:06:11.460Z,24.98
2017-05-19T01:07:11.094Z,25.03
2017-05-19T01:08:10.981Z,24.92
2017-05-19T01:09:10.972Z,25.01
2017-05-19T01:10:11.214Z,24.86
2017-05-19T01:11:10.850Z,24.98
2017-05-19T01:12:10.791Z,24.85
2017-05-19T01:13:10.729Z,24.86
2017-05-19T01:14:10.970Z,24.92
2017-05-19T01:15:10.919Z,24.81
2017-05-19T01:16:10.545Z,24.86
2017-05-19T01:17:10.179Z,24.81
2017-05-19T01:18:10.723Z,24.85
2017-05-19T01:19:10.664Z,24.95
2017-05-19T01:20:09.999Z,24.89
2017-05-19T01:21:10.546Z,24.96
2017-05-19T01:22:10.483Z,24.81
2017-05-19T01:23:10.114Z,24.89
2017-05-19T01:24:10.364Z,24.91
2017-05-19T01:25:10.297Z,24.88
2017-05-19T01:26:10.234Z,24.89
2017-05-19T01:27:09.882Z,24.88
2017-05-19T01:28:10.130Z,24.93
2017-05-19T01:29:10.055Z,24.95
2017-05-19T01:30:09.836Z,24.88
2017-05-19T01:31:09.928Z,24.95
2017-05-19T01:32:09.923Z,24.81
2017-05-19T01:33:09.507Z,24.95
2017-05-19T01:34:09.442Z,24.88
2017-05-19T01:35:09.954Z,24.85
2017-05-19T01:36:09.321Z,24.89
2017-05-19T01:37:09.559Z,24.85
2017-05-19T01:38:09.502Z,24.81
2017-05-19T01:39:09.438Z,24.78
2017-05-19T01:40:09.076Z,24.89
2017-05-19T01:41:09.013Z,24.81
2017-05-19T01:42:09.255Z,24.78
2017-05-19T01:43:08.892Z,24.78
2017-05-19T01:44:09.136Z,24.8
2017-05-19T01:45:09.072Z,24.81
2017-05-19T01:46:09.011Z,24.81
2017-05-19T01:47:08.644Z,24.78
2017-05-19T01:48:08.892Z,24.84
2017-05-19T01:49:08.825Z,24.77
2017-05-19T01:50:08.461Z,24.81
2017-05-19T01:51:08.708Z,24.84
2017-05-19T01:52:08.340Z,24.8
2017-05-19T01:53:08.583Z,24.78
2017-05-19T01:54:08.216Z,24.78
2017-05-19T01:55:08.459Z,24.78
2017-05-19T01:56:09.002Z,24.78
2017-05-19T01:57:08.032Z,24.8
2017-05-19T01:58:08.283Z,24.77
2017-05-19T01:59:08.213Z,24.81
2017-05-19T02:00:08.202Z,24.81
2017-05-19T02:01:08.089Z,24.8
2017-05-19T02:02:07.728Z,24.81
2017-05-19T02:03:07.966Z,24.81
2017-05-19T02:04:07.909Z,24.78
2017-05-19T02:05:07.542Z,24.8
2017-05-19T02:06:07.784Z,24.8
2017-05-19T02:07:07.722Z,24.77
2017-05-19T02:08:07.662Z,24.84
2017-05-19T02:09:07.600Z,24.8
2017-05-19T02:10:07.785Z,24.85
2017-05-19T02:11:07.476Z,24.77
2017-05-19T02:12:07.414Z,24.84
2017-05-19T02:13:07.351Z,24.81
2017-05-19T02:14:07.292Z,24.8
2017-05-19T02:15:07.175Z,24.81
2017-05-19T02:16:07.177Z,24.78
2017-05-19T02:17:06.802Z,24.84
2017-05-19T02:18:07.046Z,24.84
2017-05-19T02:19:06.992Z,24.8
2017-05-19T02:20:06.626Z,24.8
2017-05-19T02:21:06.861Z,24.89
2017-05-19T02:22:06.799Z,24.78
2017-05-19T02:23:06.738Z,24.81
2017-05-19T02:24:06.679Z,24.81
2017-05-19T02:25:06.618Z,24.77
2017-05-19T02:26:06.558Z,24.77
2017-05-19T02:27:06.497Z,24.81
2017-05-19T02:28:06.517Z,24.84
2017-05-19T02:29:06.373Z,24.78
2017-05-19T02:30:06.312Z,24.81
2017-05-19T02:31:06.449Z,24.77
2017-05-19T02:32:06.192Z,24.86
2017-05-19T02:33:06.125Z,24.8
2017-05-19T02:34:06.065Z,24.81
2017-05-19T02:35:06.003Z,24.8
2017-05-19T02:36:05.649Z,24.78
2017-05-19T02:37:05.881Z,24.78
2017-05-19T02:38:05.817Z,24.84
2017-05-19T02:39:05.793Z,24.8
2017-05-19T02:40:05.547Z,24.8
2017-05-19T02:41:05.632Z,24.81
2017-05-19T02:42:05.271Z,24.84
2017-05-19T02:43:05.228Z,24.77
2017-05-19T02:44:05.453Z,24.76
2017-05-19T02:45:05.405Z,24.81
2017-05-19T02:46:05.327Z,24.85
2017-05-19T02:47:05.320Z,24.81
2017-05-19T02:48:05.220Z,24.81
2017-05-19T02:49:05.143Z,24.81
2017-05-19T02:50:05.118Z,24.85
2017-05-19T02:51:05.020Z,24.74
2017-05-19T02:52:04.957Z,24.77
2017-05-19T02:53:04.913Z,24.81
2017-05-19T02:54:04.836Z,24.78
2017-05-19T02:55:04.780Z,24.77
2017-05-19T02:56:04.713Z,24.81
2017-05-19T02:57:04.649Z,24.78
2017-05-19T02:58:04.595Z,24.85
2017-05-19T02:59:04.529Z,24.81
2017-05-19T03:00:04.192Z,24.77
2017-05-19T03:01:04.414Z,24.86
2017-05-19T03:02:04.346Z,24.78
2017-05-19T03:03:04.285Z,24.8
2017-05-19T03:04:04.223Z,24.77
2017-05-19T03:05:04.201Z,24.81
2017-05-19T03:06:04.098Z,24.77
2017-05-19T03:07:04.089Z,24.85
2017-05-19T03:08:03.985Z,24.76
2017-05-19T03:09:03.619Z,24.81
2017-05-19T03:10:03.918Z,24.76
2017-05-19T03:11:03.794Z,24.78
2017-05-19T03:12:03.730Z,24.76
2017-05-19T03:13:03.672Z,24.76
2017-05-19T03:14:03.607Z,24.77
2017-05-19T03:15:03.549Z,24.8
2017-05-19T03:16:03.502Z,24.74
2017-05-19T03:17:03.430Z,24.77
2017-05-19T03:18:03.362Z,24.8
2017-05-19T03:19:03.299Z,24.78
2017-05-19T03:20:03.142Z,24.77
2017-05-19T03:21:03.188Z,24.78
2017-05-19T03:22:03.117Z,24.76
2017-05-19T03:23:03.069Z,24.7
2017-05-19T03:24:02.706Z,24.77
2017-05-19T03:25:02.933Z,24.81
2017-05-19T03:26:02.576Z,24.8
2017-05-19T03:27:02.809Z,24.68
2017-05-19T03:28:02.761Z,24.74
2017-05-19T03:29:02.687Z,24.73
2017-05-19T03:30:02.634Z,24.89
2017-05-19T03:31:02.565Z,24.73
2017-05-19T03:32:02.504Z,24.7
2017-05-19T03:33:02.446Z,24.68
2017-05-19T03:34:02.388Z,24.73
2017-05-19T03:35:02.317Z,24.89
2017-05-19T03:36:02.257Z,24.73
2017-05-19T03:37:02.193Z,24.76
2017-05-19T03:38:01.869Z,24.73
2017-05-19T03:39:02.077Z,24.74
2017-05-19T03:40:02.013Z,24.84
2017-05-19T03:41:01.645Z,24.74
2017-05-19T03:42:01.894Z,24.84
2017-05-19T03:43:01.829Z,24.76
2017-05-19T03:44:01.765Z,24.69
2017-05-19T03:45:01.717Z,24.68
2017-05-19T03:46:01.647Z,24.74
2017-05-19T03:47:01.580Z,24.66
2017-05-19T03:48:01.526Z,24.77
2017-05-19T03:49:01.465Z,24.77
2017-05-19T03:50:01.401Z,24.68
2017-05-19T03:51:01.357Z,24.69
2017-05-19T03:52:01.276Z,24.74
2017-05-19T03:53:01.255Z,24.74
2017-05-19T03:54:01.154Z,24.89
2017-05-19T03:55:01.116Z,24.76
2017-05-19T03:56:01.039Z,24.78
2017-05-19T03:57:00.965Z,24.7
2017-05-19T03:58:00.908Z,24.86
2017-05-19T03:59:00.841Z,24.76
2017-05-19T04:00:00.785Z,24.66
2017-05-19T04:01:00.728Z,24.76
2017-05-19T04:02:00.661Z,24.68
2017-05-19T04:03:00.294Z,24.69
2017-05-19T04:04:00.546Z,24.66
2017-05-19T04:05:00.476Z,24.69
2017-05-19T04:06:00.415Z,24.68
2017-05-19T04:07:00.356Z,24.84
2017-05-19T04:08:00.290Z,24.65
2017-05-19T04:09:00.228Z,24.68
2017-05-19T04:10:00.225Z,24.68
2017-05-19T04:11:00.110Z,24.76
2017-05-19T04:12:00.050Z,24.68
2017-05-19T04:12:59.679Z,24.74
2017-05-19T04:13:59.924Z,24.68
2017-05-19T04:14:59.860Z,24.66
2017-05-19T04:15:59.799Z,24.76
2017-05-19T04:16:59.735Z,24.66
2017-05-19T04:17:59.674Z,24.69
2017-05-19T04:18:59.616Z,24.69
2017-05-19T04:19:59.550Z,24.84
2017-05-19T04:20:59.490Z,24.7
2017-05-19T04:21:59.430Z,24.76
2017-05-19T04:22:59.369Z,24.73
2017-05-19T04:23:59.007Z,24.74
2017-05-19T04:24:59.244Z,24.66
2017-05-19T04:25:59.238Z,24.73
2017-05-19T04:26:59.122Z,24.68
2017-05-19T04:27:59.067Z,24.8
2017-05-19T04:28:59.001Z,24.7
2017-05-19T04:29:58.943Z,24.77
2017-05-19T04:30:58.921Z,24.85
2017-05-19T04:31:58.817Z,24.7
2017-05-19T04:32:58.757Z,24.73
2017-05-19T04:33:58.691Z,24.74
2017-05-19T04:34:58.328Z,24.76
2017-05-19T04:35:58.565Z,24.66
2017-05-19T04:36:58.507Z,24.65
2017-05-19T04:37:58.453Z,24.74
2017-05-19T04:38:58.382Z,24.69
2017-05-19T04:39:58.328Z,24.68
2017-05-19T04:40:58.265Z,24.73
2017-05-19T04:41:58.208Z,24.73
2017-05-19T04:42:58.139Z,24.66
2017-05-19T04:43:58.082Z,24.78
2017-05-19T04:44:58.015Z,24.69
2017-05-19T04:45:57.953Z,24.65
2017-05-19T04:46:57.893Z,24.74
2017-05-19T04:47:57.834Z,24.68
2017-05-19T04:48:57.774Z,24.68
2017-05-19T04:49:57.711Z,24.65
2017-05-19T04:50:57.644Z,24.77
2017-05-19T04:51:57.584Z,24.76
2017-05-19T04:52:57.608Z,24.74
2017-05-19T04:53:57.464Z,24.65
2017-05-19T04:54:57.400Z,24.74
2017-05-19T04:55:57.337Z,24.66
2017-05-19T04:56:57.276Z,24.74
2017-05-19T04:57:57.219Z,24.7
2017-05-19T04:58:57.156Z,24.65
2017-05-19T04:59:57.092Z,24.68
2017-05-19T05:00:57.029Z,24.77
2017-05-19T05:01:56.975Z,24.65
2017-05-19T05:02:56.911Z,24.69
2017-05-19T05:03:56.846Z,24.68
2017-05-19T05:04:56.791Z,24.65
2017-05-19T05:05:56.722Z,24.63
2017-05-19T05:06:56.661Z,24.73
2017-05-19T05:07:56.604Z,24.68
2017-05-19T05:08:56.546Z,24.66
2017-05-19T05:09:56.477Z,24.68
2017-05-19T05:10:56.415Z,24.69
2017-05-19T05:11:56.353Z,24.69
2017-05-19T05:12:56.307Z,24.68
2017-05-19T05:13:56.234Z,24.68
2017-05-19T05:14:56.171Z,24.73
2017-05-19T05:15:56.117Z,24.68
2017-05-19T05:16:56.047Z,24.77
2017-05-19T05:17:55.989Z,24.66
2017-05-19T05:18:55.923Z,24.65
2017-05-19T05:19:55.861Z,24.76
2017-05-19T05:20:55.798Z,24.66
2017-05-19T05:21:55.765Z,24.69
2017-05-19T05:22:55.686Z,24.73
2017-05-19T05:23:55.613Z,24.74
2017-05-19T05:24:55.556Z,24.61
2017-05-19T05:25:55.489Z,24.65
2017-05-19T05:26:55.438Z,24.61
2017-05-19T05:27:55.374Z,24.73
2017-05-19T05:28:55.313Z,24.73
2017-05-19T05:29:55.250Z,24.76
2017-05-19T05:30:55.187Z,24.77
2017-05-19T05:31:55.123Z,24.66
2017-05-19T05:32:55.068Z,24.66
2017-05-19T05:33:55.000Z,24.68
2017-05-19T05:34:54.939Z,24.73
2017-05-19T05:35:54.877Z,24.66
2017-05-19T05:36:54.513Z,24.69
2017-05-19T05:37:54.754Z,24.61
2017-05-19T05:38:54.693Z,24.58
2017-05-19T05:39:54.631Z,24.6
2017-05-19T05:40:54.570Z,24.7
2017-05-19T05:41:54.510Z,24.68
2017-05-19T05:42:54.451Z,24.61
2017-05-19T05:43:54.386Z,24.65
2017-05-19T05:44:54.321Z,24.6
2017-05-19T05:45:53.964Z,24.57
2017-05-19T05:46:54.202Z,24.54
2017-05-19T05:47:53.836Z,24.54
2017-05-19T05:48:54.082Z,24.55
2017-05-19T05:49:54.016Z,24.65
2017-05-19T05:50:53.978Z,24.58
2017-05-19T05:51:53.891Z,24.63
2017-05-19T05:52:53.842Z,24.61
2017-05-19T05:53:53.782Z,24.6
2017-05-19T05:54:53.705Z,24.6
2017-05-19T05:55:53.646Z,24.66
2017-05-19T05:56:53.583Z,24.58
2017-05-19T05:57:53.219Z,24.57
2017-05-19T05:58:53.474Z,24.57
2017-05-19T05:59:53.399Z,24.6
2017-05-19T06:00:53.336Z,24.55
2017-05-19T06:01:53.278Z,24.57
2017-05-19T06:02:54.423Z,24.65
2017-05-19T06:03:53.150Z,24.57
2017-05-19T06:04:53.095Z,24.58
2017-05-19T06:05:53.028Z,24.61
2017-05-19T06:06:52.970Z,24.55
2017-05-19T06:07:52.907Z,24.55
2017-05-19T06:08:52.843Z,24.58
2017-05-19T06:09:52.832Z,24.54
2017-05-19T06:10:52.763Z,24.55
2017-05-19T06:11:52.354Z,24.61
2017-05-19T06:12:52.595Z,24.6
2017-05-19T06:13:52.536Z,24.63
2017-05-19T06:14:52.475Z,24.55
2017-05-19T06:15:52.410Z,24.6
2017-05-19T06:16:52.350Z,24.57
2017-05-19T06:17:52.288Z,24.58
2017-05-19T06:18:52.227Z,24.57
2017-05-19T06:19:52.170Z,24.51
2017-05-19T06:20:51.801Z,24.55
2017-05-19T06:21:51.791Z,24.63
2017-05-19T06:22:51.678Z,24.57
2017-05-19T06:23:51.919Z,24.54
2017-05-19T06:24:51.858Z,24.55
2017-05-19T06:25:51.842Z,24.51
2017-05-19T06:26:51.735Z,24.6
2017-05-19T06:27:51.673Z,24.57
2017-05-19T06:28:51.621Z,24.61
2017-05-19T06:29:51.552Z,24.48
2017-05-19T06:30:51.489Z,24.53
2017-05-19T06:31:51.427Z,24.55
2017-05-19T06:32:51.367Z,24.54
2017-05-19T06:33:51.304Z,24.55
2017-05-19T06:34:51.239Z,24.61
2017-05-19T06:35:51.181Z,24.61
2017-05-19T06:36:51.119Z,24.54
2017-05-19T06:37:51.073Z,24.61
2017-05-19T06:38:50.693Z,24.54
2017-05-19T06:39:50.934Z,24.58
2017-05-19T06:40:50.569Z,24.61
2017-05-19T06:41:50.812Z,24.51
2017-05-19T06:42:50.749Z,24.58
2017-05-19T06:43:50.915Z,24.48
2017-05-19T06:44:50.657Z,24.53
2017-05-19T06:45:50.563Z,24.5
2017-05-19T06:46:50.501Z,24.48
2017-05-19T06:47:50.145Z,24.61
2017-05-19T06:48:50.075Z,24.57
2017-05-19T06:49:50.317Z,24.57
2017-05-19T06:50:50.260Z,24.48
2017-05-19T06:51:50.191Z,24.55
2017-05-19T06:52:50.130Z,24.57
2017-05-19T06:53:50.070Z,24.55
2017-05-19T06:54:50.250Z,24.58
2017-05-19T06:55:49.947Z,24.51
2017-05-19T06:56:49.885Z,24.54
2017-05-19T06:57:49.826Z,24.57
2017-05-19T06:58:49.760Z,24.51
2017-05-19T06:59:49.703Z,24.55
2017-05-19T07:00:49.644Z,24.55
2017-05-19T07:01:49.575Z,24.47
2017-05-19T07:02:49.518Z,24.57
2017-05-19T07:03:49.457Z,24.5
2017-05-19T07:04:49.089Z,24.5
2017-05-19T07:05:49.337Z,24.58
2017-05-19T07:06:49.272Z,24.5
2017-05-19T07:07:49.211Z,24.55
2017-05-19T07:08:49.150Z,24.54
2017-05-19T07:09:49.091Z,24.53
2017-05-19T07:10:49.027Z,24.57
2017-05-19T07:11:48.960Z,24.6
2017-05-19T07:12:48.595Z,24.55
2017-05-19T07:13:48.838Z,24.57
2017-05-19T07:14:48.775Z,24.51
2017-05-19T07:15:48.716Z,24.61
2017-05-19T07:16:48.654Z,24.53
2017-05-19T07:17:48.592Z,24.61
2017-05-19T07:18:48.234Z,24.58
2017-05-19T07:19:48.466Z,24.55
2017-05-19T07:20:48.411Z,24.57
2017-05-19T07:21:48.348Z,24.54
2017-05-19T07:22:48.283Z,24.48
2017-05-19T07:23:48.263Z,24.57
2017-05-19T07:24:48.160Z,24.48
2017-05-19T07:25:47.794Z,24.55
2017-05-19T07:26:48.036Z,24.57
2017-05-19T07:27:47.976Z,24.55
2017-05-19T07:28:47.918Z,24.58
2017-05-19T07:29:47.850Z,24.57
2017-05-19T07:30:47.790Z,24.61
2017-05-19T07:31:47.934Z,24.57
2017-05-19T07:32:47.369Z,24.48
2017-05-19T07:33:47.615Z,24.51
2017-05-19T07:34:47.747Z,24.51
2017-05-19T07:35:47.786Z,24.58
2017-05-19T07:36:47.435Z,24.6
2017-05-19T07:37:47.568Z,24.51
2017-05-19T07:38:47.298Z,24.54
2017-05-19T07:39:47.238Z,24.54
2017-05-19T07:40:47.420Z,24.6
2017-05-19T07:41:47.114Z,24.5
2017-05-19T07:42:47.051Z,24.57
2017-05-19T07:43:46.689Z,24.53
2017-05-19T07:44:46.633Z,24.53
2017-05-19T07:45:46.968Z,24.55
2017-05-19T07:46:46.802Z,24.58
2017-05-19T07:47:46.757Z,24.55
2017-05-19T07:48:46.709Z,24.48
2017-05-19T07:49:46.649Z,24.54
2017-05-19T07:50:46.807Z,24.57
2017-05-19T07:51:46.502Z,24.51
2017-05-19T07:52:46.441Z,24.54
2017-05-19T07:53:46.388Z,24.51
2017-05-19T07:54:46.321Z,24.58
2017-05-19T07:55:46.251Z,24.57
2017-05-19T07:56:46.201Z,24.55
2017-05-19T07:57:45.840Z,24.54
2017-05-19T07:58:46.087Z,24.55
2017-05-19T07:59:46.019Z,24.54
2017-05-19T08:00:45.953Z,24.48
2017-05-19T08:01:45.302Z,24.53
2017-05-19T08:02:45.822Z,24.54
2017-05-19T08:03:45.982Z,24.61
2017-05-19T08:04:45.707Z,24.55
2017-05-19T08:05:45.638Z,24.57
2017-05-19T08:06:45.288Z,24.6
2017-05-19T08:07:45.217Z,24.55
2017-05-19T08:08:45.452Z,24.5
2017-05-19T08:09:45.408Z,24.6
2017-05-19T08:10:45.023Z,24.58
2017-05-19T08:11:45.269Z,24.51
2017-05-19T08:12:45.204Z,24.58
2017-05-19T08:13:45.140Z,24.6
2017-05-19T08:14:45.082Z,24.58
2017-05-19T08:15:44.720Z,24.65
2017-05-19T08:16:45.012Z,24.58
2017-05-19T08:17:44.892Z,24.61
2017-05-19T08:18:44.898Z,24.57
2017-05-19T08:19:44.773Z,24.61
2017-05-19T08:20:44.717Z,24.61
2017-05-19T08:21:44.346Z,24.57
2017-05-19T08:22:44.287Z,24.6
2017-05-19T08:23:44.260Z,24.57
2017-05-19T08:24:44.163Z,24.65
2017-05-19T08:25:44.406Z,24.54
2017-05-19T08:26:44.340Z,24.57
2017-05-19T08:27:44.277Z,24.65
2017-05-19T08:28:44.225Z,24.61
2017-05-19T08:29:44.173Z,24.6
2017-05-19T08:30:44.104Z,24.6
2017-05-19T08:31:43.727Z,24.57
2017-05-19T08:32:43.989Z,24.61
2017-05-19T08:33:43.919Z,24.6
2017-05-19T08:34:43.547Z,24.55
2017-05-19T08:35:43.789Z,24.58
2017-05-19T08:36:43.721Z,24.65
2017-05-19T08:37:43.665Z,24.61
2017-05-19T08:38:43.611Z,24.61
2017-05-19T08:39:43.240Z,24.66
2017-05-19T08:40:43.552Z,24.69
2017-05-19T08:41:43.416Z,24.61
2017-05-19T08:42:43.059Z,24.69
2017-05-19T08:43:43.293Z,24.63
2017-05-19T08:44:43.234Z,24.7
2017-05-19T08:45:43.170Z,24.73
2017-05-19T08:46:43.153Z,24.65
2017-05-19T08:47:43.059Z,24.76
2017-05-19T08:48:42.986Z,24.69
2017-05-19T08:49:42.922Z,24.65
2017-05-19T08:50:42.870Z,24.6
2017-05-19T08:51:42.498Z,24.65
2017-05-19T08:52:42.744Z,24.76
2017-05-19T08:53:42.373Z,24.73
2017-05-19T08:54:42.621Z,24.61
2017-05-19T08:55:42.554Z,24.69
2017-05-19T08:56:42.493Z,24.69
2017-05-19T08:57:42.436Z,24.7
2017-05-19T08:58:42.370Z,24.68
2017-05-19T08:59:42.307Z,24.7
2017-05-19T09:00:42.264Z,24.69
2017-05-19T09:01:42.183Z,24.65
2017-05-19T09:02:42.124Z,24.65
2017-05-19T09:03:42.074Z,24.68
2017-05-19T09:04:41.997Z,24.66
2017-05-19T09:05:41.943Z,24.58
2017-05-19T09:06:41.876Z,24.6
2017-05-19T09:07:41.522Z,24.61
2017-05-19T09:08:41.773Z,24.68
2017-05-19T09:09:41.690Z,24.61
2017-05-19T09:10:41.632Z,24.66
2017-05-19T09:11:41.569Z,24.68
2017-05-19T09:12:41.515Z,24.57
2017-05-19T09:13:41.450Z,24.63
2017-05-19T09:14:41.389Z,24.68
2017-05-19T09:15:41.019Z,24.61
2017-05-19T09:16:41.273Z,24.69
2017-05-19T09:17:41.207Z,24.69
2017-05-19T09:18:41.143Z,24.63
2017-05-19T09:19:40.774Z,24.66
2017-05-19T09:20:40.712Z,24.76
2017-05-19T09:21:40.955Z,24.65
2017-05-19T09:22:40.591Z,24.74
2017-05-19T09:23:40.529Z,24.68
2017-05-19T09:24:40.767Z,24.77
2017-05-19T09:25:40.716Z,24.7
2017-05-19T09:26:40.652Z,24.73
2017-05-19T09:27:40.589Z,24.69
2017-05-19T09:28:40.536Z,24.65
2017-05-19T09:29:40.481Z,24.63
2017-05-19T09:30:40.399Z,24.7
2017-05-19T09:31:40.341Z,24.63
2017-05-19T09:32:40.281Z,24.68
2017-05-19T09:33:40.223Z,24.66
2017-05-19T09:34:40.155Z,24.68
2017-05-19T09:35:40.101Z,24.69
2017-05-19T09:36:39.728Z,24.69
2017-05-19T09:37:39.970Z,24.68
2017-05-19T09:38:39.908Z,24.74
2017-05-19T09:39:39.852Z,24.74
2017-05-19T09:40:39.529Z,24.89
2017-05-19T09:41:39.729Z,24.74
2017-05-19T09:42:39.677Z,24.68
2017-05-19T09:43:39.604Z,24.73
2017-05-19T09:44:39.237Z,24.74
2017-05-19T09:45:39.481Z,24.74
2017-05-19T09:46:39.125Z,24.69
2017-05-19T09:47:39.359Z,24.76
2017-05-19T09:48:38.692Z,24.8
2017-05-19T09:49:38.958Z,24.74
2017-05-19T09:50:39.538Z,24.76
2017-05-19T09:51:38.812Z,24.85
2017-05-19T09:52:39.051Z,24.74
2017-05-19T09:53:38.992Z,24.77
2017-05-19T09:54:38.938Z,24.85
2017-05-19T09:55:39.113Z,24.8
2017-05-19T09:56:38.801Z,24.88
2017-05-19T09:57:38.758Z,24.77
2017-05-19T09:58:38.683Z,24.78
2017-05-19T09:59:38.619Z,24.84
2017-05-19T10:00:38.766Z,24.8
2017-05-19T10:01:38.357Z,24.81
2017-05-19T10:02:38.435Z,24.78
2017-05-19T10:03:38.380Z,24.76
2017-05-19T10:04:38.339Z,24.84
2017-05-19T10:05:37.948Z,24.84
2017-05-19T10:06:37.899Z,24.92
2017-05-19T10:07:38.126Z,24.89
2017-05-19T10:08:38.127Z,24.85
2017-05-19T10:09:38.007Z,24.88
2017-05-19T10:10:37.707Z,24.92
2017-05-19T10:11:37.887Z,24.88
2017-05-19T10:12:37.819Z,24.88
2017-05-19T10:13:37.760Z,24.92
2017-05-19T10:14:37.695Z,24.86
2017-05-19T10:15:37.637Z,24.99
2017-05-19T10:16:37.586Z,24.98
2017-05-19T10:17:37.514Z,25.01
2017-05-19T10:18:37.152Z,24.86
2017-05-19T10:19:37.168Z,24.99
2017-05-19T10:20:36.723Z,25.04
2017-05-19T10:21:36.977Z,24.95
2017-05-19T10:22:37.208Z,24.99
2017-05-19T10:23:37.497Z,25.08
2017-05-19T10:24:36.789Z,24.99
2017-05-19T10:25:37.031Z,25.03
2017-05-19T10:26:36.983Z,25.03
2017-05-19T10:27:36.907Z,25.1
2017-05-19T10:28:36.845Z,25.01
2017-05-19T10:29:36.777Z,25.03
2017-05-19T10:30:36.720Z,25.1
2017-05-19T10:31:36.354Z,25.11
2017-05-19T10:32:36.596Z,25.06
2017-05-19T10:33:35.930Z,25.08
2017-05-19T10:34:36.472Z,25.11
2017-05-19T10:35:36.610Z,25.17
2017-05-19T10:36:36.359Z,25.17
2017-05-19T10:37:36.296Z,25.1
2017-05-19T10:38:35.949Z,25.16
2017-05-19T10:39:35.871Z,25.13
2017-05-19T10:40:35.802Z,25.13
2017-05-19T10:41:35.749Z,25.21
2017-05-19T10:42:35.988Z,25.22
2017-05-19T10:43:35.926Z,25.25
2017-05-19T10:44:35.608Z,25.17
2017-05-19T10:45:35.804Z,25.22
2017-05-19T10:46:35.440Z,25.22
2017-05-19T10:47:35.382Z,25.26
2017-05-19T10:48:35.620Z,25.23
2017-05-19T10:49:35.249Z,25.29
2017-05-19T10:50:35.293Z,25.32
2017-05-19T10:51:35.438Z,25.32
2017-05-19T10:52:35.392Z,25.29
2017-05-19T10:53:35.014Z,25.32
2017-05-19T10:54:35.252Z,25.29
2017-05-19T10:55:35.288Z,25.38
2017-05-19T10:56:35.187Z,25.38
2017-05-19T10:57:35.066Z,25.38
2017-05-19T10:58:34.708Z,25.38
2017-05-19T10:59:34.658Z,25.38
2017-05-19T11:00:34.802Z,25.35
2017-05-19T11:01:34.225Z,25.4
2017-05-19T11:02:34.768Z,25.41
2017-05-19T11:03:34.703Z,25.35
2017-05-19T11:04:34.643Z,25.4
2017-05-19T11:05:34.579Z,25.33
2017-05-19T11:06:34.526Z,25.36
2017-05-19T11:07:34.461Z,25.4
2017-05-19T11:08:34.307Z,25.4
2017-05-19T11:09:34.338Z,25.46
2017-05-19T11:10:34.577Z,25.36
2017-05-19T11:11:33.925Z,25.43
2017-05-19T11:12:34.156Z,25.46
2017-05-19T11:13:33.491Z,25.55
2017-05-19T11:14:33.728Z,25.47
2017-05-19T11:15:34.073Z,25.5
2017-05-19T11:16:34.138Z,25.48
2017-05-19T11:17:33.552Z,25.47
2017-05-19T11:18:33.489Z,25.47
2017-05-19T11:19:33.729Z,25.51
2017-05-19T11:20:33.824Z,25.54
2017-05-19T11:21:33.611Z,25.47
2017-05-19T11:22:33.546Z,25.5
2017-05-19T11:23:33.485Z,25.47
2017-05-19T11:24:33.128Z,25.51
2017-05-19T11:25:33.372Z,25.58
2017-05-19T11:26:33.302Z,25.5
2017-05-19T11:27:32.972Z,25.53
2017-05-19T11:28:33.189Z,25.51
2017-05-19T11:29:33.119Z,25.53
2017-05-19T11:30:33.065Z,25.51
2017-05-19T11:31:32.717Z,25.53
2017-05-19T11:32:33.041Z,25.65
2017-05-19T11:33:32.576Z,25.55
2017-05-19T11:34:32.519Z,25.62
2017-05-19T11:35:32.757Z,25.6
2017-05-19T11:36:32.800Z,25.63
2017-05-19T11:37:32.638Z,25.65
2017-05-19T11:38:32.573Z,25.68
2017-05-19T11:39:32.227Z,25.63
2017-05-19T11:40:32.553Z,25.65
2017-05-19T11:41:32.088Z,25.65
2017-05-19T11:42:32.331Z,25.68
2017-05-19T11:43:31.981Z,25.68
2017-05-19T11:44:32.217Z,25.68
2017-05-19T11:45:32.413Z,25.66
2017-05-19T11:46:31.895Z,25.68
2017-05-19T11:47:32.107Z,25.65
2017-05-19T11:48:32.078Z,25.68
2017-05-19T11:49:31.957Z,25.68
2017-05-19T11:50:31.937Z,25.68
2017-05-19T11:51:31.583Z,25.66
2017-05-19T11:52:31.429Z,25.66
2017-05-19T11:53:31.412Z,25.68
2017-05-19T11:54:31.848Z,25.75
2017-05-19T11:55:31.690Z,25.68
2017-05-19T11:56:31.217Z,25.68
2017-05-19T11:57:31.422Z,25.7
2017-05-19T11:58:31.120Z,25.72
2017-05-19T11:59:31.007Z,25.75
2017-05-19T12:00:31.242Z,25.66
2017-05-19T12:01:31.180Z,25.73
2017-05-19T12:02:30.889Z,25.7
2017-05-19T12:03:31.076Z,25.69
2017-05-19T12:04:31.120Z,25.72
2017-05-19T12:05:30.633Z,25.75
2017-05-19T12:06:30.574Z,25.72
2017-05-19T12:07:30.817Z,25.7
2017-05-19T12:08:30.769Z,25.78
2017-05-19T12:09:30.395Z,25.73
2017-05-19T12:10:30.634Z,25.73
2017-05-19T12:11:30.575Z,25.81
2017-05-19T12:12:30.212Z,25.77
2017-05-19T12:13:30.452Z,25.77
2017-05-19T12:14:30.392Z,25.8
2017-05-19T12:15:30.343Z,25.7
2017-05-19T12:16:30.273Z,25.78
2017-05-19T12:17:30.217Z,25.75
2017-05-19T12:18:30.156Z,25.8
2017-05-19T12:19:29.800Z,25.84
2017-05-19T12:20:29.970Z,25.81
2017-05-19T12:21:29.667Z,25.78
2017-05-19T12:22:29.940Z,25.8
2017-05-19T12:23:29.550Z,25.85
2017-05-19T12:24:29.790Z,25.81
2017-05-19T12:25:29.532Z,25.81
2017-05-19T12:26:29.668Z,25.78
2017-05-19T12:27:29.606Z,25.78
2017-05-19T12:28:29.550Z,25.8
2017-05-19T12:29:28.877Z,25.83
2017-05-19T12:30:28.818Z,25.78
2017-05-19T12:31:29.058Z,25.84
2017-05-19T12:32:29.001Z,25.85
2017-05-19T12:33:29.244Z,25.83
2017-05-19T12:34:29.189Z,25.81
2017-05-19T12:35:28.820Z,25.88
2017-05-19T12:36:28.760Z,25.83
2017-05-19T12:37:29.000Z,25.83
2017-05-19T12:38:28.959Z,25.87
2017-05-19T12:39:28.883Z,25.84
2017-05-19T12:40:28.818Z,25.85
2017-05-19T12:41:28.759Z,25.85
2017-05-19T12:42:28.402Z,25.88
2017-05-19T12:43:28.675Z,25.87
2017-05-19T12:44:28.577Z,25.83
2017-05-19T12:45:28.528Z,25.8
2017-05-19T12:46:28.470Z,25.9
2017-05-19T12:47:28.398Z,25.83
2017-05-19T12:48:28.337Z,25.85
2017-05-19T12:49:28.273Z,25.88
2017-05-19T12:50:27.610Z,25.84
2017-05-19T12:51:27.855Z,25.85
2017-05-19T12:52:27.795Z,25.85
2017-05-19T12:53:28.063Z,25.88
2017-05-19T12:54:27.978Z,25.87
2017-05-19T12:55:27.911Z,25.88